Madawaska, Maine
Current Conditions -  °F | °C
As of 3:44 PM on Monday 22 Dec 2014 (Local Time) from KFVE Reporting Station
Overcast Overcast  
Wind Chill: 22°   Ceiling: 1700
Heat Index: 22°   Visibility: 10mi
Dew Point: 19°   Wind: 0mph
Humidity: 89%   Direction: NA
Pressure: 30.36"   Gusts: NA
Location:  47.36°N, 68.32°W
Report Text: KFVE 222044Z AUTO 00000KT 10SM SCT008 OVC017 M06/M07 A3036 RMK AO2 T10561072
Loading
Personal Weather Stations






























Interactive Weather Map New forecast layout! Learn more

10-Day Weather Forecast

Advertisements
Track Severe Weather on mobile